Time;durP1;ratioP1;P1;durP2;ratioP2;P2;SDS_P1;SDS_P2;PMS_P1;PMS_P2;Temp;Humidity;BMP_temperature;BMP_pressure;BME280_temperature;BME280_humidity;BME280_pressure;Samples;Min_cycle;Max_cycle;Signal;HPM_P1;HPM_P2
2022/11/26 00:00:24;;;;;;;6.07;3.20;;;;;;;9.65;52.44;99517.31;6276147;22;20147;-84
2022/11/26 00:02:50;;;;;;;7.13;3.80;;;;;;;9.63;52.05;99511.28;6249409;22;20577;-84
2022/11/26 00:05:16;;;;;;;5.77;3.40;;;;;;;9.68;51.89;99512.81;6249375;22;20160;-84
2022/11/26 00:07:46;;;;;;;5.23;3.17;;;;;;;9.52;52.44;99518.75;6249275;22;20175;-84
2022/11/26 00:10:19;;;;;;;3.67;2.50;;;;;;;9.48;52.95;99525.91;6250537;22;20165;-84
2022/11/26 00:12:44;;;;;;;6.57;3.63;;;;;;;9.50;52.81;99523.19;6249329;22;20157;-84
2022/11/26 00:15:30;;;;;;;6.03;3.27;;;;;;;9.41;53.16;99531.44;6276444;22;20160;-84
2022/11/26 00:17:56;;;;;;;8.70;3.67;;;;;;;9.37;53.41;99533.34;6244082;23;20173;-84
2022/11/26 00:20:30;;;;;;;8.03;3.87;;;;;;;9.22;53.98;99534.78;6245753;22;20170;-84
2022/11/26 00:23:00;;;;;;;8.77;4.20;;;;;;;9.21;54.25;99527.03;6244177;23;20236;-84
2022/11/26 00:25:31;;;;;;;9.87;3.80;;;;;;;9.09;54.28;99527.53;6245759;22;20148;-84
2022/11/26 00:27:58;;;;;;;5.30;2.83;;;;;;;9.00;55.05;99530.50;6245825;22;20279;-84
2022/11/26 00:30:26;;;;;;;7.10;3.63;;;;;;;8.88;55.43;99531.00;6244304;23;20224;-84
2022/11/26 00:32:55;;;;;;;10.20;4.07;;;;;;;8.97;55.34;99536.69;6244612;23;20581;-84
2022/11/26 00:35:22;;;;;;;6.93;3.53;;;;;;;8.95;55.62;99528.06;6246058;22;20150;-84
2022/11/26 00:37:55;;;;;;;5.43;2.97;;;;;;;8.80;56.02;99530.44;6245249;22;20174;-84
2022/11/26 00:40:24;;;;;;;7.77;3.60;;;;;;;8.57;56.94;99533.91;6244162;23;20464;-84
2022/11/26 00:42:51;;;;;;;10.50;4.40;;;;;;;8.63;56.37;99538.91;6246131;22;20160;-84
2022/11/26 00:45:19;;;;;;;8.97;3.97;;;;;;;8.58;56.72;99535.63;6245947;23;20164;-84
2022/11/26 00:47:45;;;;;;;7.73;3.37;;;;;;;8.58;56.94;99535.63;6247119;22;20152;-84
2022/11/26 00:50:16;;;;;;;7.57;3.97;;;;;;;8.62;56.81;99538.06;6245876;23;20157;-84
2022/11/26 00:52:42;;;;;;;7.43;3.50;;;;;;;8.69;56.63;99537.84;6245869;23;20164;-84
2022/11/26 00:55:28;;;;;;;5.87;3.03;;;;;;;8.81;56.04;99537.34;6247114;22;20162;-84
2022/11/26 00:57:54;;;;;;;5.27;3.10;;;;;;;8.64;56.36;99556.31;6244914;23;20663;-84
2022/11/26 01:00:24;;;;;;;6.50;2.63;;;;;;;8.60;56.73;99557.31;6247016;22;20173;-84
2022/11/26 01:02:50;;;;;;;9.70;3.27;;;;;;;8.56;57.16;99567.06;6245815;23;20160;-84
2022/11/26 01:05:16;;;;;;;6.30;3.30;;;;;;;8.60;56.79;99563.41;6248020;22;20511;-84
2022/11/26 01:07:43;;;;;;;5.53;2.90;;;;;;;8.61;56.85;99561.66;6246960;22;20154;-83
2022/11/26 01:10:18;;;;;;;6.63;2.77;;;;;;;8.62;56.70;99563.38;6245670;23;20164;-84
2022/11/26 01:12:44;;;;;;;10.10;3.60;;;;;;;8.55;57.42;99561.88;6246902;22;20218;-84
2022/11/26 01:15:10;;;;;;;6.80;3.13;;;;;;;8.59;57.52;99547.81;6246938;22;20582;-84
2022/11/26 01:17:35;;;;;;;5.67;2.97;;;;;;;8.55;57.58;99557.50;6254222;22;20239;-84
2022/11/26 01:20:01;;;;;;;8.70;3.27;;;;;;;8.49;57.65;99556.91;6278134;22;20138;-84
2022/11/26 01:22:26;;;;;;;5.03;3.23;;;;;;;8.47;57.31;99562.16;6277403;22;20183;-84
2022/11/26 01:24:51;;;;;;;6.40;3.50;;;;;;;8.48;57.64;99566.50;6278058;22;20173;-83
2022/11/26 01:27:19;;;;;;;7.93;3.60;;;;;;;8.33;58.24;99559.19;6277403;22;20212;-83
2022/11/26 01:29:45;;;;;;;8.53;3.20;;;;;;;8.40;58.08;99567.69;6277326;22;20187;-84
2022/11/26 01:32:11;;;;;;;6.37;2.93;;;;;;;8.44;57.60;99553.59;6250666;22;20273;-83
2022/11/26 01:34:36;;;;;;;8.07;2.90;;;;;;;8.47;58.24;99549.09;6277396;22;20290;-83
2022/11/26 01:37:02;;;;;;;6.33;3.13;;;;;;;8.46;57.89;99557.84;6277208;22;20173;-83
2022/11/26 01:39:28;;;;;;;7.70;3.03;;;;;;;8.59;57.26;99563.47;6250487;22;20240;-83
2022/11/26 01:42:06;;;;;;;6.87;2.63;;;;;;;8.60;57.56;99566.03;6277900;22;20148;-83
2022/11/26 01:44:34;;;;;;;5.47;2.93;;;;;;;8.62;57.66;99563.38;6250501;22;20145;-84
2022/11/26 01:47:01;;;;;;;7.87;3.50;;;;;;;8.78;56.70;99559.22;6250441;22;20179;-84
2022/11/26 01:49:30;;;;;;;7.33;3.20;;;;;;;8.83;56.40;99559.91;6277166;22;20206;-84
2022/11/26 01:52:20;;;;;;;8.97;3.57;;;;;;;8.83;56.30;99561.69;6250351;22;20156;-84
2022/11/26 01:54:46;;;;;;;4.80;2.43;;;;;;;8.78;56.66;99555.78;6250515;22;20152;-84
2022/11/26 01:57:11;;;;;;;9.50;4.13;;;;;;;8.78;56.41;99553.19;6250197;22;20185;-84
2022/11/26 01:59:41;;;;;;;5.03;2.53;;;;;;;8.69;56.50;99559.59;6250225;22;20155;-84
2022/11/26 02:02:06;;;;;;;3.83;2.47;;;;;;;8.71;56.65;99556.91;6250184;22;20152;-84
2022/11/26 02:04:37;;;;;;;8.27;3.60;;;;;;;8.72;56.94;99559.50;6250188;22;20210;-83
2022/11/26 02:07:03;;;;;;;6.13;3.17;;;;;;;8.72;56.89;99566.47;6277084;22;20133;-83
2022/11/26 02:09:29;;;;;;;6.73;3.33;;;;;;;8.74;57.18;99564.66;6276982;22;20691;-83
2022/11/26 02:11:55;;;;;;;7.73;3.90;;;;;;;8.89;56.42;99577.97;6250241;22;20166;-83
2022/11/26 02:14:38;;;;;;;5.63;2.77;;;;;;;8.98;56.17;99566.31;6277215;22;20148;-84
2022/11/26 02:17:22;;;;;;;7.90;2.93;;;;;;;9.04;55.45;99564.28;6249984;22;20249;-83
2022/11/26 02:20:19;;;;;;;7.43;3.13;;;;;;;9.01;55.87;99560.97;6250503;22;20176;-84
2022/11/26 02:22:48;;;;;;;6.47;3.70;;;;;;;8.93;56.15;99558.66;6242731;22;20202;-84
2022/11/26 02:25:43;;;;;;;6.57;2.70;;;;;;;8.95;55.91;99567.28;6250103;22;20153;-84
2022/11/26 02:28:50;;;;;;;6.50;3.17;;;;;;;9.02;55.30;99573.97;6250069;22;20460;-84
2022/11/26 02:31:45;;;;;;;4.60;2.83;;;;;;;9.06;55.33;99575.56;6275932;22;20159;-84
2022/11/26 02:34:22;;;;;;;10.57;3.73;;;;;;;9.12;55.53;99584.91;6277298;22;20592;-84
2022/11/26 02:37:01;;;;;;;6.60;3.20;;;;;;;9.05;55.01;99594.78;6276637;22;20176;-84
2022/11/26 02:39:28;;;;;;;9.63;3.77;;;;;;;8.94;54.90;99598.72;6277373;22;20224;-83
2022/11/26 02:41:57;;;;;;;10.50;4.30;;;;;;;8.95;54.73;99597.81;6249776;22;20192;-83
2022/11/26 02:44:26;;;;;;;8.83;4.67;;;;;;;9.00;54.72;99604.56;6249861;22;20231;-83
2022/11/26 02:47:01;;;;;;;9.20;3.50;;;;;;;8.97;54.79;99602.06;6276950;22;20473;-84
2022/11/26 02:49:27;;;;;;;7.23;3.17;;;;;;;8.90;54.51;99599.75;6277211;22;20550;-84
2022/11/26 02:51:58;;;;;;;10.63;3.20;;;;;;;8.78;55.10;99603.66;6250312;22;20156;-83
2022/11/26 02:54:26;;;;;;;5.63;2.53;;;;;;;8.73;55.66;99608.22;6250007;22;20233;-84
2022/11/26 02:56:53;;;;;;;4.37;2.50;;;;;;;8.77;55.65;99609.81;6276466;22;20184;-84
2022/11/26 02:59:19;;;;;;;6.63;3.10;;;;;;;8.84;55.49;99611.28;6249800;22;20220;-84
2022/11/26 03:01:49;;;;;;;5.77;2.57;;;;;;;8.78;55.33;99606.28;6276869;22;20188;-83
2022/11/26 03:04:20;;;;;;;7.97;2.57;;;;;;;8.71;55.42;99610.03;6277060;22;20156;-83
2022/11/26 03:06:47;;;;;;;6.53;2.23;;;;;;;8.64;55.62;99600.75;6249638;22;20595;-84
2022/11/26 03:09:16;;;;;;;5.37;2.63;;;;;;;8.65;56.13;99605.91;6276386;22;20474;-83
2022/11/26 03:11:42;;;;;;;6.57;2.87;;;;;;;8.63;55.47;99614.69;6276391;22;20149;-83
2022/11/26 03:14:08;;;;;;;4.83;2.77;;;;;;;8.58;55.64;99614.88;6276988;22;20511;-83
2022/11/26 03:16:33;;;;;;;4.00;2.23;;;;;;;8.54;55.93;99612.44;6249473;22;20163;-84
2022/11/26 03:18:59;;;;;;;4.10;2.70;;;;;;;8.49;56.08;99614.38;6244456;23;20197;-83
2022/11/26 03:21:24;;;;;;;6.30;2.70;;;;;;;8.46;55.71;99619.72;6245580;23;20160;-83
2022/11/26 03:23:50;;;;;;;7.10;2.20;;;;;;;8.48;56.27;99616.13;6245808;22;20156;-83
2022/11/26 03:26:15;;;;;;;4.53;2.47;;;;;;;8.49;56.30;99614.38;6245704;22;20150;-83
2022/11/26 03:28:41;;;;;;;5.20;2.80;;;;;;;8.48;55.99;99618.75;6246306;22;20184;-83
2022/11/26 03:31:06;;;;;;;5.67;2.60;;;;;;;8.51;56.09;99618.63;6245655;22;20152;-83
2022/11/26 03:33:32;;;;;;;4.23;2.53;;;;;;;8.48;55.88;99612.66;6246038;22;20155;-83
2022/11/26 03:35:57;;;;;;;7.90;2.70;;;;;;;8.47;56.05;99624.00;6245673;22;20207;-83
2022/11/26 03:38:22;;;;;;;5.53;2.17;;;;;;;8.51;55.95;99628.22;6245514;23;20176;-83
2022/11/26 03:40:59;;;;;;;7.80;2.50;;;;;;;8.41;56.19;99632.09;6245584;22;20595;-83
2022/11/26 03:43:25;;;;;;;6.67;2.77;;;;;;;8.36;56.59;99636.63;6246313;22;20152;-83
2022/11/26 03:45:50;;;;;;;4.67;2.37;;;;;;;8.28;56.67;99636.03;6244442;23;20163;-83
2022/11/26 03:48:16;;;;;;;4.23;2.13;;;;;;;8.22;56.15;99637.06;6244376;23;20159;-83
2022/11/26 03:50:41;;;;;;;3.70;2.17;;;;;;;8.22;56.85;99646.66;6245943;22;20192;-83
2022/11/26 03:53:07;;;;;;;6.20;2.27;;;;;;;8.08;57.14;99652.34;6245929;22;20149;-83
2022/11/26 03:55:33;;;;;;;4.43;2.33;;;;;;;8.20;57.09;99643.25;6245607;22;20587;-83
2022/11/26 03:57:58;;;;;;;5.60;2.23;;;;;;;8.22;57.10;99642.28;6245728;23;20318;-83
2022/11/26 04:00:23;;;;;;;5.30;2.33;;;;;;;8.34;56.27;99641.03;6244391;23;20157;-83
2022/11/26 04:02:49;;;;;;;4.93;2.00;;;;;;;8.29;56.42;99654.25;6245517;23;20224;-83
2022/11/26 04:05:14;;;;;;;4.73;2.00;;;;;;;8.26;56.93;99650.84;6244284;23;20572;-83
2022/11/26 04:07:40;;;;;;;5.67;2.63;;;;;;;8.29;57.01;99653.41;6244293;23;20176;-83
2022/11/26 04:10:06;;;;;;;3.30;1.67;;;;;;;8.28;56.94;99657.75;6244702;23;20149;-83
2022/11/26 04:12:31;;;;;;;3.57;1.97;;;;;;;8.26;56.47;99662.16;6244211;23;20219;-84
2022/11/26 04:14:57;;;;;;;6.20;2.80;;;;;;;8.27;56.92;99671.75;6245468;22;20157;-83
2022/11/26 04:17:22;;;;;;;5.73;2.47;;;;;;;8.36;56.62;99662.75;6251227;22;20627;-83
2022/11/26 04:19:48;;;;;;;7.03;1.93;;;;;;;8.43;55.98;99661.59;6251679;22;20149;-84
2022/11/26 04:22:13;;;;;;;3.47;1.90;;;;;;;8.46;55.90;99653.66;6251685;22;20157;-84
2022/11/26 04:24:38;;;;;;;8.70;2.93;;;;;;;8.52;56.17;99662.13;6251297;22;20171;-84
2022/11/26 04:27:04;;;;;;;7.60;3.87;;;;;;;8.45;55.30;99665.00;6277917;22;20146;-83
2022/11/26 04:29:29;;;;;;;9.07;5.30;;;;;;;8.19;56.24;99683.31;6251566;22;20164;-84
2022/11/26 04:31:55;;;;;;;17.60;5.27;;;;;;;7.92;56.70;99688.56;6251161;22;20148;-84
2022/11/26 04:34:20;;;;;;;40.63;14.70;;;;;;;7.95;56.58;99696.28;6277838;22;20148;-84
2022/11/26 04:36:46;;;;;;;44.33;14.47;;;;;;;8.04;55.32;99693.34;6250954;22;20224;-83
2022/11/26 04:39:11;;;;;;;30.73;10.07;;;;;;;8.16;55.44;99693.84;6251057;22;20156;-84
2022/11/26 04:41:37;;;;;;;12.97;5.57;;;;;;;8.16;55.24;99683.41;6251187;22;20164;-84
2022/11/26 04:44:03;;;;;;;10.37;4.60;;;;;;;8.03;55.44;99689.06;6277780;22;20145;-84
2022/11/26 04:46:28;;;;;;;7.50;3.93;;;;;;;8.07;55.64;99694.19;6251051;22;20152;-83
2022/11/26 04:48:54;;;;;;;10.37;4.53;;;;;;;7.87;56.12;99698.31;6250967;22;20157;-84
2022/11/26 04:51:19;;;;;;;8.63;4.37;;;;;;;7.71;57.03;99697.09;6250958;22;20213;-84
2022/11/26 04:53:45;;;;;;;10.63;4.10;;;;;;;7.74;56.75;99693.53;6250794;22;20209;-83
2022/11/26 04:56:10;;;;;;;7.13;3.63;;;;;;;7.72;56.85;99703.16;6277718;22;20163;-84
2022/11/26 04:58:36;;;;;;;8.73;3.47;;;;;;;7.72;56.78;99704.03;6250814;22;20184;-84
2022/11/26 05:01:01;;;;;;;26.87;8.73;;;;;;;7.66;56.72;99704.22;6277637;22;20241;-84
2022/11/26 05:03:27;;;;;;;13.57;5.33;;;;;;;7.54;56.91;99709.81;6250832;22;20177;-83
2022/11/26 05:05:53;;;;;;;14.10;7.30;;;;;;;7.49;57.60;99709.13;6250812;22;20152;-84
2022/11/26 05:08:18;;;;;;;17.33;6.17;;;;;;;7.39;57.52;99712.88;6250863;22;20266;-84
2022/11/26 05:10:43;;;;;;;9.03;5.03;;;;;;;7.45;57.76;99710.09;6277582;22;20495;-83
2022/11/26 05:13:09;;;;;;;10.60;4.57;;;;;;;7.41;57.65;99717.19;6277543;22;20414;-84
2022/11/26 05:15:34;;;;;;;10.03;4.80;;;;;;;7.46;58.11;99716.16;6277517;22;20153;-84
2022/11/26 05:18:00;;;;;;;7.70;3.27;;;;;;;7.47;57.57;99718.72;6245372;23;20201;-84
2022/11/26 05:20:25;;;;;;;10.07;3.30;;;;;;;7.55;57.58;99714.13;6245638;23;20224;-83
2022/11/26 05:22:51;;;;;;;6.23;2.43;;;;;;;7.55;57.03;99721.94;6246879;22;20417;-84
2022/11/26 05:25:16;;;;;;;6.90;2.63;;;;;;;7.55;57.86;99727.16;6246765;22;20553;-84
2022/11/26 05:27:42;;;;;;;3.80;2.07;;;;;;;7.53;58.36;99728.13;6246926;23;20141;-83
2022/11/26 05:30:08;;;;;;;4.03;2.03;;;;;;;7.53;58.66;99723.75;6246611;23;20150;-83
2022/11/26 05:32:33;;;;;;;6.43;2.80;;;;;;;7.57;58.59;99729.75;6246696;22;20155;-83
2022/11/26 05:34:58;;;;;;;4.23;2.47;;;;;;;7.60;59.23;99729.66;6246764;22;20145;-83
2022/11/26 05:37:24;;;;;;;6.27;2.50;;;;;;;7.69;58.41;99734.56;6247237;22;20238;-83
2022/11/26 05:39:50;;;;;;;6.03;2.40;;;;;;;7.75;58.89;99740.47;6245862;23;20221;-83
2022/11/26 05:42:15;;;;;;;20.97;7.40;;;;;;;7.71;58.42;99741.44;6247021;22;20494;-83
2022/11/26 05:44:41;;;;;;;34.10;14.07;;;;;;;7.58;57.58;99752.28;6245403;23;20153;-84
2022/11/26 05:47:07;;;;;;;32.90;13.53;;;;;;;7.48;57.57;99754.34;6245339;23;20149;-83
2022/11/26 05:49:32;;;;;;;34.50;13.93;;;;;;;7.41;57.27;99760.66;6246954;22;20160;-83
2022/11/26 05:51:58;;;;;;;23.50;9.67;;;;;;;7.34;57.06;99759.09;6245325;23;20275;-83
2022/11/26 05:54:23;;;;;;;9.63;4.97;;;;;;;7.45;56.99;99759.66;6245317;23;20165;-83
2022/11/26 05:56:49;;;;;;;11.80;5.87;;;;;;;7.43;57.42;99759.72;6246320;23;20172;-83
2022/11/26 05:59:14;;;;;;;11.27;4.80;;;;;;;7.39;57.61;99762.44;6246482;22;20511;-83
2022/11/26 06:01:39;;;;;;;8.43;3.90;;;;;;;7.37;57.88;99765.09;6246734;23;20149;-83
2022/11/26 06:04:05;;;;;;;9.87;5.40;;;;;;;7.30;58.11;99767.94;6245102;23;20153;-83
2022/11/26 06:06:30;;;;;;;28.27;9.00;;;;;;;7.27;58.62;99773.22;6246353;23;20150;-83
2022/11/26 06:08:56;;;;;;;12.77;6.80;;;;;;;7.47;58.95;99775.28;6246371;22;20142;-83
2022/11/26 06:11:21;;;;;;;12.07;5.40;;;;;;;7.90;58.72;99767.81;6245169;23;20154;-83
2022/11/26 06:13:47;;;;;;;9.03;5.33;;;;;;;8.33;57.39;99769.94;6246310;22;20224;-83
2022/11/26 06:16:12;;;;;;;17.90;8.17;;;;;;;8.58;55.98;99770.78;6245052;23;20600;-83
2022/11/26 06:18:38;;;;;;;11.70;6.00;;;;;;;8.55;56.10;99776.97;6267336;22;20193;-83
2022/11/26 06:21:06;;;;;;;12.77;6.30;;;;;;;8.45;55.68;99783.44;6276843;22;20597;-83
2022/11/26 06:23:32;;;;;;;9.50;5.67;;;;;;;8.54;56.43;99782.28;6250049;22;20162;-83
2022/11/26 06:25:58;;;;;;;10.83;5.70;;;;;;;8.75;55.82;99784.16;6249997;22;20531;-83
2022/11/26 06:28:23;;;;;;;12.83;5.00;;;;;;;9.20;55.30;99787.72;6250108;22;20145;-83
2022/11/26 06:30:49;;;;;;;15.97;5.73;;;;;;;9.62;53.68;99785.25;6277068;22;20147;-83
2022/11/26 06:33:14;;;;;;;17.57;5.90;;;;;;;9.83;53.13;99789.66;6276684;22;20609;-83
2022/11/26 06:35:40;;;;;;;9.67;5.33;;;;;;;10.09;53.08;99788.63;6250028;22;20470;-83
2022/11/26 06:38:05;;;;;;;21.37;5.43;;;;;;;10.42;52.58;99789.06;6249849;22;20180;-83
2022/11/26 06:40:31;;;;;;;13.97;6.10;;;;;;;10.68;52.00;99787.97;6276952;22;20489;-83
2022/11/26 06:42:56;;;;;;;16.07;7.23;;;;;;;10.69;51.34;99787.06;6276668;22;20563;-84
2022/11/26 06:45:22;;;;;;;16.87;6.40;;;;;;;10.93;51.20;99791.22;6249877;22;20176;-84
2022/11/26 06:47:50;;;;;;;10.30;4.83;;;;;;;11.23;49.86;99789.88;6276519;22;20175;-84
2022/11/26 06:50:17;;;;;;;8.87;4.43;;;;;;;11.52;48.18;99794.66;6276826;22;20181;-84
2022/11/26 06:52:43;;;;;;;12.97;6.37;;;;;;;11.67;47.90;99795.72;6249733;22;20156;-84
2022/11/26 06:55:10;;;;;;;18.50;8.07;;;;;;;11.85;48.08;99794.03;6249465;22;20149;-84
2022/11/26 06:57:37;;;;;;;10.53;5.90;;;;;;;11.92;47.31;99798.94;6275659;22;20176;-84
2022/11/26 07:00:06;;;;;;;13.63;5.23;;;;;;;12.00;47.29;99804.66;6275378;22;20144;-84
2022/11/26 07:02:33;;;;;;;11.63;5.63;;;;;;;11.96;47.38;99791.75;6275802;22;20149;-84
2022/11/26 07:04:59;;;;;;;10.23;4.70;;;;;;;12.00;47.37;99798.59;6276134;22;20163;-84
2022/11/26 07:07:26;;;;;;;13.50;5.93;;;;;;;11.85;47.28;99805.41;6250693;22;20153;-84
2022/11/26 07:09:52;;;;;;;10.67;4.73;;;;;;;11.83;47.75;99807.25;6276750;22;20148;-84
2022/11/26 07:12:19;;;;;;;20.40;7.37;;;;;;;11.79;47.45;99804.84;6276719;22;20641;-84
2022/11/26 07:14:46;;;;;;;21.57;7.73;;;;;;;11.54;48.06;99813.81;6248142;22;20163;-84
2022/11/26 07:17:11;;;;;;;13.17;5.73;;;;;;;11.35;48.19;99810.31;6248904;22;20611;-84
2022/11/26 07:19:39;;;;;;;9.77;5.33;;;;;;;11.23;48.29;99810.03;6249922;22;20161;-84
2022/11/26 07:22:05;;;;;;;14.27;6.10;;;;;;;11.29;48.36;99815.00;6276387;22;20160;-84
2022/11/26 07:24:31;;;;;;;7.87;3.77;;;;;;;11.12;48.03;99813.13;6249691;22;20175;-84
2022/11/26 07:26:58;;;;;;;10.37;4.23;;;;;;;11.24;48.46;99807.31;6249542;22;20564;-84
2022/11/26 07:29:24;;;;;;;6.43;2.47;;;;;;;11.35;47.94;99812.94;6276232;22;20145;-84
2022/11/26 07:31:51;;;;;;;3.30;1.57;;;;;;;11.48;47.25;99815.84;6276815;22;20243;-84
2022/11/26 07:34:18;;;;;;;5.10;2.13;;;;;;;11.50;47.60;99814.88;6277026;22;20568;-84
2022/11/26 07:36:44;;;;;;;10.10;2.03;;;;;;;11.48;47.11;99811.47;6249422;22;20149;-84
2022/11/26 07:39:10;;;;;;;5.73;2.07;;;;;;;11.33;47.45;99813.94;6276713;22;20149;-85
2022/11/26 07:41:37;;;;;;;4.73;2.20;;;;;;;11.44;47.83;99820.41;6249505;22;20159;-84
2022/11/26 07:44:04;;;;;;;6.40;2.10;;;;;;;11.67;47.79;99807.09;6276346;22;20152;-84
2022/11/26 07:46:31;;;;;;;5.00;2.00;;;;;;;11.81;46.85;99809.09;6249936;22;20152;-84
2022/11/26 07:48:56;;;;;;;5.97;1.97;;;;;;;11.85;45.75;99812.41;6249589;22;20458;-84
2022/11/26 07:51:26;;;;;;;3.23;1.47;;;;;;;11.83;46.06;99811.66;6250159;22;20587;-85
2022/11/26 07:53:53;;;;;;;3.40;1.80;;;;;;;11.75;46.14;99811.16;6252147;22;20163;-84
2022/11/26 07:56:19;;;;;;;5.00;1.97;;;;;;;11.75;46.38;99804.13;6251627;22;20148;-85
2022/11/26 07:58:46;;;;;;;4.33;1.77;;;;;;;11.90;45.31;99810.44;6251463;22;20196;-85
2022/11/26 08:01:14;;;;;;;3.13;1.60;;;;;;;12.00;46.41;99814.34;6278674;22;20149;-84
2022/11/26 08:03:43;;;;;;;3.23;1.47;;;;;;;12.13;45.86;99811.03;6251525;22;20155;-84
2022/11/26 08:06:12;;;;;;;6.87;1.63;;;;;;;12.24;45.00;99811.38;6277515;22;20150;-84
2022/11/26 08:08:37;;;;;;;5.07;1.87;;;;;;;12.53;44.93;99806.47;6250006;22;20214;-84
2022/11/26 08:11:10;;;;;;;6.57;2.17;;;;;;;12.65;44.52;99804.09;6249863;22;20154;-85
2022/11/26 08:13:35;;;;;;;5.27;2.07;;;;;;;12.74;44.38;99800.13;6252331;22;20161;-85
2022/11/26 08:16:01;;;;;;;8.83;2.90;;;;;;;12.80;43.79;99803.31;6250115;22;20548;-85
2022/11/26 08:18:26;;;;;;;5.23;1.90;;;;;;;12.83;43.82;99795.25;6244446;23;20527;-85
2022/11/26 08:20:56;;;;;;;4.07;2.03;;;;;;;13.07;43.73;99806.34;6246726;23;20563;-85
2022/11/26 08:23:23;;;;;;;8.70;2.30;;;;;;;13.13;43.92;99800.72;6246281;23;20155;-85
2022/11/26 08:25:49;;;;;;;7.83;2.73;;;;;;;13.18;43.97;99803.16;6247955;22;20583;-84
2022/11/26 08:28:14;;;;;;;5.60;2.80;;;;;;;13.21;43.92;99797.69;6247542;22;20208;-85
2022/11/26 08:30:40;;;;;;;5.03;2.13;;;;;;;13.34;43.70;99798.75;6246970;23;20609;-85
2022/11/26 08:33:05;;;;;;;4.30;2.50;;;;;;;13.31;44.37;99797.13;6246616;23;20580;-85
2022/11/26 08:35:33;;;;;;;5.00;2.33;;;;;;;13.31;43.18;99799.75;6247473;22;20454;-85
2022/11/26 08:37:58;;;;;;;6.67;2.80;;;;;;;13.47;44.42;99794.53;6246144;23;20191;-85
2022/11/26 08:40:24;;;;;;;7.63;1.80;;;;;;;13.62;44.19;99792.88;6247852;22;20166;-85
2022/11/26 08:42:49;;;;;;;5.43;2.20;;;;;;;13.77;43.19;99787.59;6247682;22;20173;-84
2022/11/26 08:45:15;;;;;;;3.90;1.90;;;;;;;13.81;43.05;99783.84;6246459;23;20212;-85
2022/11/26 08:47:40;;;;;;;5.93;2.80;;;;;;;13.90;42.81;99786.00;6246006;23;20149;-85
2022/11/26 08:50:06;;;;;;;3.57;2.17;;;;;;;13.76;43.07;99791.16;6247346;22;20149;-85
2022/11/26 08:52:32;;;;;;;7.07;2.60;;;;;;;13.70;42.57;99799.41;6247326;22;20226;-85
2022/11/26 08:54:57;;;;;;;5.03;2.20;;;;;;;13.68;41.58;99803.91;6246076;23;20264;-85
2022/11/26 08:57:23;;;;;;;5.60;2.43;;;;;;;13.82;42.07;99809.28;6245968;23;20183;-85
2022/11/26 08:59:50;;;;;;;3.83;2.03;;;;;;;13.69;42.35;99805.63;6247263;22;20162;-84
2022/11/26 09:02:17;;;;;;;4.53;2.33;;;;;;;13.83;41.65;99807.50;6245179;23;20236;-84
2022/11/26 09:04:43;;;;;;;6.40;1.80;;;;;;;13.95;40.44;99814.72;6245238;23;20157;-85
2022/11/26 09:07:14;;;;;;;3.30;1.70;;;;;;;13.87;41.01;99815.13;6247215;22;20145;-85
2022/11/26 09:09:40;;;;;;;4.50;1.73;;;;;;;13.90;41.23;99816.75;6246992;22;20622;-85
2022/11/26 09:12:07;;;;;;;4.43;1.93;;;;;;;14.09;41.44;99817.44;6245713;23;20155;-85
2022/11/26 09:14:39;;;;;;;5.73;2.23;;;;;;;14.01;41.33;99825.78;6245905;23;20151;-85
2022/11/26 09:17:05;;;;;;;4.07;2.07;;;;;;;14.04;40.06;99824.75;6246660;22;20541;-85
2022/11/26 09:19:31;;;;;;;6.77;2.60;;;;;;;14.28;40.64;99819.91;6248564;22;20249;-85
2022/11/26 09:21:58;;;;;;;7.53;3.03;;;;;;;14.41;41.91;99819.13;6250888;22;20174;-84
2022/11/26 09:24:25;;;;;;;8.37;2.07;;;;;;;14.55;40.66;99820.97;6278233;22;20643;-85
2022/11/26 09:26:52;;;;;;;4.90;2.07;;;;;;;14.55;39.89;99818.31;6250868;22;20180;-84
2022/11/26 09:29:24;;;;;;;3.33;1.50;;;;;;;14.70;40.32;99807.72;6277851;22;20236;-85
2022/11/26 09:31:51;;;;;;;4.70;2.03;;;;;;;14.83;39.65;99812.31;6226617;22;20158;-85
2022/11/26 09:34:18;;;;;;;3.83;1.67;;;;;;;14.67;38.92;99802.63;6250842;22;20168;-85
2022/11/26 09:36:43;;;;;;;4.20;2.03;;;;;;;14.75;39.65;99810.13;6277255;22;20214;-85
2022/11/26 09:39:12;;;;;;;3.50;1.87;;;;;;;14.98;40.38;99806.09;6250257;22;20156;-85
2022/11/26 09:42:15;;;;;;;7.20;2.17;;;;;;;15.20;38.66;99801.22;6249767;22;20575;-85
2022/11/26 09:45:05;;;;;;;4.33;1.93;;;;;;;15.25;38.61;99789.44;6250402;22;20214;-85
2022/11/26 09:47:45;;;;;;;3.53;2.10;;;;;;;15.07;39.31;99795.84;6251071;22;20145;-85
2022/11/26 09:50:13;;;;;;;4.30;1.93;;;;;;;15.28;39.16;99796.31;6277525;22;20132;-85
2022/11/26 09:52:57;;;;;;;4.23;2.00;;;;;;;15.41;39.08;99783.22;6250586;22;20159;-85
2022/11/26 09:55:28;;;;;;;5.33;2.10;;;;;;;15.61;38.58;99780.22;6249696;22;20572;-85
2022/11/26 09:58:31;;;;;;;3.83;2.07;;;;;;;15.45;38.63;99784.72;6276739;22;20584;-85
2022/11/26 10:00:59;;;;;;;6.90;2.23;;;;;;;15.41;38.31;99784.06;6276529;22;20148;-85
2022/11/26 10:03:47;;;;;;;5.97;2.13;;;;;;;15.54;38.37;99778.91;6250109;22;20164;-85
2022/11/26 10:06:51;;;;;;;4.27;2.23;;;;;;;15.56;38.69;99775.22;6267823;22;20160;-84
2022/11/26 10:09:40;;;;;;;4.80;2.30;;;;;;;15.69;38.19;99767.38;6276196;22;20149;-85
2022/11/26 10:12:28;;;;;;;7.70;3.23;;;;;;;15.83;37.75;99770.81;6276110;22;20160;-85
2022/11/26 10:15:17;;;;;;;8.67;2.97;;;;;;;15.82;37.73;99774.44;6247900;22;20150;-85
2022/11/26 10:18:12;;;;;;;3.77;2.23;;;;;;;15.60;38.06;99773.22;6247118;22;20275;-85
2022/11/26 10:21:15;;;;;;;3.37;2.00;;;;;;;15.45;37.46;99775.00;6248704;22;20413;-85
2022/11/26 10:24:14;;;;;;;4.03;1.80;;;;;;;15.61;37.89;99767.00;6275085;22;20146;-85
2022/11/26 10:26:39;;;;;;;5.97;2.47;;;;;;;15.61;37.69;99773.16;6248298;22;20524;-85
2022/11/26 10:29:21;;;;;;;5.30;2.00;;;;;;;15.84;37.02;99764.59;6276348;22;20585;-85
2022/11/26 10:31:48;;;;;;;6.50;2.60;;;;;;;15.87;37.24;99761.75;6250198;22;20166;-85
2022/11/26 10:34:18;;;;;;;7.07;2.70;;;;;;;16.06;36.82;99760.56;6250451;22;20168;-85
2022/11/26 10:36:46;;;;;;;3.87;2.03;;;;;;;16.14;36.20;99764.38;6250327;22;20215;-85
2022/11/26 10:39:15;;;;;;;5.63;2.13;;;;;;;16.22;36.48;99754.16;6250463;22;20618;-85
2022/11/26 10:41:41;;;;;;;6.13;2.27;;;;;;;16.10;35.44;99767.34;6250428;22;20155;-85
2022/11/26 10:44:38;;;;;;;4.77;1.80;;;;;;;16.12;35.67;99761.00;6250058;22;20184;-85
2022/11/26 10:47:30;;;;;;;6.23;2.10;;;;;;;16.13;36.12;99759.22;6250026;22;20235;-85
2022/11/26 10:49:57;;;;;;;5.43;2.30;;;;;;;16.39;36.65;99756.56;6243380;22;20181;-85
2022/11/26 10:52:27;;;;;;;4.33;2.33;;;;;;;16.47;35.20;99756.91;6250441;22;20155;-85
2022/11/26 10:55:26;;;;;;;4.47;1.80;;;;;;;16.42;34.47;99752.84;6250306;22;20190;-85
2022/11/26 10:58:22;;;;;;;5.80;1.67;;;;;;;16.46;35.06;99752.53;6194692;22;20192;-85
2022/11/26 11:00:48;;;;;;;6.03;2.40;;;;;;;16.67;35.01;99749.41;6237952;22;20170;-85
2022/11/26 11:03:17;;;;;;;4.57;2.00;;;;;;;16.62;36.38;99739.16;6249912;22;20152;-85
2022/11/26 11:05:44;;;;;;;3.27;1.80;;;;;;;16.80;34.45;99740.56;6249831;22;20155;-85
2022/11/26 11:08:31;;;;;;;7.33;1.80;;;;;;;16.97;34.03;99740.25;6249813;22;20150;-85
2022/11/26 11:11:00;;;;;;;3.97;1.80;;;;;;;17.02;34.34;99742.56;6250071;22;20160;-86
2022/11/26 11:13:42;;;;;;;3.33;1.60;;;;;;;17.03;33.88;99736.34;6250233;22;20155;-86
2022/11/26 11:16:09;;;;;;;2.93;1.73;;;;;;;17.01;34.44;99740.88;6276871;22;20151;-85
2022/11/26 11:18:45;;;;;;;5.07;1.93;;;;;;;17.22;34.20;99733.25;6275437;22;20198;-86
2022/11/26 11:21:17;;;;;;;6.63;1.63;;;;;;;17.24;34.04;99723.38;6249406;22;20220;-85
2022/11/26 11:23:44;;;;;;;4.87;1.70;;;;;;;17.29;33.80;99727.41;6276813;22;20183;-86
2022/11/26 11:26:23;;;;;;;5.03;1.50;;;;;;;17.17;33.11;99731.75;6275603;22;20151;-86
2022/11/26 11:28:53;;;;;;;3.83;1.40;;;;;;;17.38;32.81;99724.09;6250855;22;20151;-86
2022/11/26 11:31:25;;;;;;;5.40;1.80;;;;;;;17.51;32.95;99721.41;6249665;22;20156;-86
2022/11/26 11:34:12;;;;;;;2.37;1.07;;;;;;;17.46;32.20;99724.41;6249850;22;20590;-86
2022/11/26 11:36:38;;;;;;;3.07;1.33;;;;;;;17.48;31.97;99719.81;6276085;22;20219;-86
2022/11/26 11:39:05;;;;;;;3.00;1.13;;;;;;;17.64;31.49;99720.47;6275763;22;20258;-86
2022/11/26 11:41:46;;;;;;;5.10;1.60;;;;;;;17.65;31.51;99722.16;6249384;22;20153;-86
2022/11/26 11:44:37;;;;;;;2.30;1.23;;;;;;;17.66;31.60;99715.88;6276375;22;20641;-86
2022/11/26 11:47:08;;;;;;;5.33;1.60;;;;;;;17.62;31.58;99716.22;6276644;22;20141;-86